Shady Grove, Illinois
Current Conditions -  °F | °C
As of 4:35 PM on Sunday 23 Nov 2014 (Local Time) from KM30 Reporting Station
Moderate Rain Moderate Rain  
Wind Chill: 56°   Ceiling: 500
Heat Index: 56°   Visibility: 5mi
Dew Point: 56°   Wind: 6mph
Humidity: 100%   Direction: 110°ESE
Pressure: 29.3"   Gusts: NA
Location:  37.1362°N, 88.5694°W
Report Text: KM30 232235Z AUTO 11005KT 5SM RA BKN005 BKN008 OVC031 13/13 A2930 RMK AO2 P0013 T01320132
Loading
Personal Weather Stations






























Interactive Weather Map New forecast layout! Learn more

10-Day Weather Forecast

Advertisements
Track Severe Weather on mobile